sensor_id;sensor_type;location;lat;lon;timestamp;P1;durP1;ratioP1;P2;durP2;ratioP2
6193;SDS011;3130;41.564;23.280;2023-07-31T00:00:42;5.77;;;5.17;;
6193;SDS011;3130;41.564;23.280;2023-07-31T00:03:11;7.00;;;6.20;;
6193;SDS011;3130;41.564;23.280;2023-07-31T00:05:38;7.07;;;6.40;;
6193;SDS011;3130;41.564;23.280;2023-07-31T00:08:06;6.97;;;5.47;;
6193;SDS011;3130;41.564;23.280;2023-07-31T00:10:33;7.00;;;6.30;;
6193;SDS011;3130;41.564;23.280;2023-07-31T00:13:00;7.13;;;6.40;;
6193;SDS011;3130;41.564;23.280;2023-07-31T00:15:29;7.83;;;6.43;;
6193;SDS011;3130;41.564;23.280;2023-07-31T00:17:56;9.23;;;6.73;;
6193;SDS011;3130;41.564;23.280;2023-07-31T00:20:23;8.37;;;6.57;;
6193;SDS011;3130;41.564;23.280;2023-07-31T00:22:50;7.77;;;7.00;;
6193;SDS011;3130;41.564;23.280;2023-07-31T00:25:18;7.37;;;6.53;;
6193;SDS011;3130;41.564;23.280;2023-07-31T00:27:45;8.27;;;7.13;;
6193;SDS011;3130;41.564;23.280;2023-07-31T00:30:12;10.20;;;7.07;;
6193;SDS011;3130;41.564;23.280;2023-07-31T00:32:40;11.80;;;8.13;;
6193;SDS011;3130;41.564;23.280;2023-07-31T00:35:08;10.90;;;7.63;;
6193;SDS011;3130;41.564;23.280;2023-07-31T00:37:35;8.37;;;7.60;;
6193;SDS011;3130;41.564;23.280;2023-07-31T00:40:02;9.30;;;7.53;;
6193;SDS011;3130;41.564;23.280;2023-07-31T00:42:29;10.00;;;7.47;;
6193;SDS011;3130;41.564;23.280;2023-07-31T00:44:57;8.83;;;7.77;;
6193;SDS011;3130;41.564;23.280;2023-07-31T00:47:24;9.00;;;8.10;;
6193;SDS011;3130;41.564;23.280;2023-07-31T00:49:53;9.67;;;8.03;;
6193;SDS011;3130;41.564;23.280;2023-07-31T00:52:21;12.43;;;7.97;;
6193;SDS011;3130;41.564;23.280;2023-07-31T00:54:48;9.30;;;8.37;;
6193;SDS011;3130;41.564;23.280;2023-07-31T00:57:16;10.67;;;8.97;;
6193;SDS011;3130;41.564;23.280;2023-07-31T00:59:43;10.97;;;9.33;;
6193;SDS011;3130;41.564;23.280;2023-07-31T01:02:11;11.60;;;9.00;;
6193;SDS011;3130;41.564;23.280;2023-07-31T01:04:39;11.70;;;9.03;;
6193;SDS011;3130;41.564;23.280;2023-07-31T01:07:11;11.50;;;10.37;;
6193;SDS011;3130;41.564;23.280;2023-07-31T01:09:47;11.17;;;10.07;;
6193;SDS011;3130;41.564;23.280;2023-07-31T01:12:22;11.70;;;9.53;;
6193;SDS011;3130;41.564;23.280;2023-07-31T01:14:51;10.37;;;9.37;;
6193;SDS011;3130;41.564;23.280;2023-07-31T01:17:18;11.17;;;8.60;;
6193;SDS011;3130;41.564;23.280;2023-07-31T01:19:46;10.67;;;9.30;;
6193;SDS011;3130;41.564;23.280;2023-07-31T01:22:30;12.67;;;10.40;;
6193;SDS011;3130;41.564;23.280;2023-07-31T01:25:13;11.20;;;10.20;;
6193;SDS011;3130;41.564;23.280;2023-07-31T01:27:50;13.63;;;10.17;;
6193;SDS011;3130;41.564;23.280;2023-07-31T01:30:25;12.63;;;9.37;;
6193;SDS011;3130;41.564;23.280;2023-07-31T01:32:58;10.97;;;8.97;;
6193;SDS011;3130;41.564;23.280;2023-07-31T01:35:31;8.87;;;7.97;;
6193;SDS011;3130;41.564;23.280;2023-07-31T01:37:59;9.00;;;8.00;;
6193;SDS011;3130;41.564;23.280;2023-07-31T01:40:26;9.03;;;7.30;;
6193;SDS011;3130;41.564;23.280;2023-07-31T01:42:55;7.03;;;6.33;;
6193;SDS011;3130;41.564;23.280;2023-07-31T01:45:23;7.77;;;6.57;;
6193;SDS011;3130;41.564;23.280;2023-07-31T01:47:50;6.40;;;5.80;;
6193;SDS011;3130;41.564;23.280;2023-07-31T01:50:17;8.50;;;6.80;;
6193;SDS011;3130;41.564;23.280;2023-07-31T01:52:44;6.90;;;6.10;;
6193;SDS011;3130;41.564;23.280;2023-07-31T01:55:11;7.03;;;5.90;;
6193;SDS011;3130;41.564;23.280;2023-07-31T01:57:39;6.07;;;5.47;;
6193;SDS011;3130;41.564;23.280;2023-07-31T02:00:09;6.50;;;5.40;;
6193;SDS011;3130;41.564;23.280;2023-07-31T02:02:36;6.27;;;5.50;;
6193;SDS011;3130;41.564;23.280;2023-07-31T02:05:04;6.57;;;5.10;;
6193;SDS011;3130;41.564;23.280;2023-07-31T02:07:32;7.70;;;6.13;;
6193;SDS011;3130;41.564;23.280;2023-07-31T02:09:59;7.07;;;6.37;;
6193;SDS011;3130;41.564;23.280;2023-07-31T02:12:26;7.67;;;6.87;;
6193;SDS011;3130;41.564;23.280;2023-07-31T02:14:55;8.33;;;7.53;;
6193;SDS011;3130;41.564;23.280;2023-07-31T02:17:24;9.17;;;7.63;;
6193;SDS011;3130;41.564;23.280;2023-07-31T02:19:51;8.63;;;7.83;;
6193;SDS011;3130;41.564;23.280;2023-07-31T02:22:19;9.37;;;7.53;;
6193;SDS011;3130;41.564;23.280;2023-07-31T02:24:46;7.90;;;7.07;;
6193;SDS011;3130;41.564;23.280;2023-07-31T02:27:13;9.10;;;8.20;;
6193;SDS011;3130;41.564;23.280;2023-07-31T02:29:40;9.87;;;8.97;;
6193;SDS011;3130;41.564;23.280;2023-07-31T02:32:08;9.23;;;8.33;;
6193;SDS011;3130;41.564;23.280;2023-07-31T02:34:36;9.27;;;8.37;;
6193;SDS011;3130;41.564;23.280;2023-07-31T02:37:04;9.53;;;8.57;;
6193;SDS011;3130;41.564;23.280;2023-07-31T02:39:32;9.53;;;8.53;;
6193;SDS011;3130;41.564;23.280;2023-07-31T02:41:59;9.70;;;8.70;;
6193;SDS011;3130;41.564;23.280;2023-07-31T02:44:26;9.00;;;8.20;;
6193;SDS011;3130;41.564;23.280;2023-07-31T02:46:53;10.60;;;9.20;;
6193;SDS011;3130;41.564;23.280;2023-07-31T02:49:21;11.37;;;10.20;;
6193;SDS011;3130;41.564;23.280;2023-07-31T02:51:49;9.40;;;8.50;;
6193;SDS011;3130;41.564;23.280;2023-07-31T02:54:16;9.90;;;8.90;;
6193;SDS011;3130;41.564;23.280;2023-07-31T02:56:45;11.07;;;9.97;;
6193;SDS011;3130;41.564;23.280;2023-07-31T02:59:13;11.97;;;9.53;;
6193;SDS011;3130;41.564;23.280;2023-07-31T03:01:40;12.50;;;10.33;;
6193;SDS011;3130;41.564;23.280;2023-07-31T03:04:07;10.57;;;9.57;;
6193;SDS011;3130;41.564;23.280;2023-07-31T03:06:34;10.63;;;9.67;;
6193;SDS011;3130;41.564;23.280;2023-07-31T03:09:03;10.90;;;9.80;;
6193;SDS011;3130;41.564;23.280;2023-07-31T03:11:30;11.10;;;10.00;;
6193;SDS011;3130;41.564;23.280;2023-07-31T03:13:57;10.97;;;9.87;;
6193;SDS011;3130;41.564;23.280;2023-07-31T03:16:25;10.90;;;9.83;;
6193;SDS011;3130;41.564;23.280;2023-07-31T03:18:52;12.07;;;9.30;;
6193;SDS011;3130;41.564;23.280;2023-07-31T03:21:21;8.07;;;7.27;;
6193;SDS011;3130;41.564;23.280;2023-07-31T03:23:48;7.73;;;6.67;;
6193;SDS011;3130;41.564;23.280;2023-07-31T03:26:17;5.80;;;4.60;;
6193;SDS011;3130;41.564;23.280;2023-07-31T03:28:44;5.20;;;4.70;;
6193;SDS011;3130;41.564;23.280;2023-07-31T03:31:12;4.43;;;3.97;;
6193;SDS011;3130;41.564;23.280;2023-07-31T03:33:39;6.50;;;4.70;;
6193;SDS011;3130;41.564;23.280;2023-07-31T03:36:06;6.63;;;4.87;;
6193;SDS011;3130;41.564;23.280;2023-07-31T03:38:36;6.13;;;4.67;;
6193;SDS011;3130;41.564;23.280;2023-07-31T03:41:03;4.77;;;4.27;;
6193;SDS011;3130;41.564;23.280;2023-07-31T03:43:32;5.30;;;4.80;;
6193;SDS011;3130;41.564;23.280;2023-07-31T03:46:00;5.43;;;4.90;;
6193;SDS011;3130;41.564;23.280;2023-07-31T03:48:28;5.50;;;4.90;;
6193;SDS011;3130;41.564;23.280;2023-07-31T03:50:55;5.77;;;4.93;;
6193;SDS011;3130;41.564;23.280;2023-07-31T03:53:23;6.40;;;5.50;;
6193;SDS011;3130;41.564;23.280;2023-07-31T03:55:50;6.33;;;5.63;;
6193;SDS011;3130;41.564;23.280;2023-07-31T03:58:17;7.13;;;6.30;;
6193;SDS011;3130;41.564;23.280;2023-07-31T04:00:46;6.27;;;5.63;;
6193;SDS011;3130;41.564;23.280;2023-07-31T04:03:14;9.27;;;8.03;;
6193;SDS011;3130;41.564;23.280;2023-07-31T04:05:41;6.67;;;6.00;;
6193;SDS011;3130;41.564;23.280;2023-07-31T04:08:10;8.20;;;7.00;;
6193;SDS011;3130;41.564;23.280;2023-07-31T04:10:40;7.07;;;6.27;;
6193;SDS011;3130;41.564;23.280;2023-07-31T04:13:07;9.50;;;8.00;;
6193;SDS011;3130;41.564;23.280;2023-07-31T04:15:35;8.60;;;7.70;;
6193;SDS011;3130;41.564;23.280;2023-07-31T04:18:04;8.47;;;7.33;;
6193;SDS011;3130;41.564;23.280;2023-07-31T04:20:32;10.00;;;8.90;;
6193;SDS011;3130;41.564;23.280;2023-07-31T04:22:59;9.47;;;8.47;;
6193;SDS011;3130;41.564;23.280;2023-07-31T04:25:27;9.93;;;8.90;;
6193;SDS011;3130;41.564;23.280;2023-07-31T04:27:54;10.77;;;9.67;;
6193;SDS011;3130;41.564;23.280;2023-07-31T04:30:21;11.20;;;9.83;;
6193;SDS011;3130;41.564;23.280;2023-07-31T04:32:48;13.03;;;11.27;;
6193;SDS011;3130;41.564;23.280;2023-07-31T04:35:17;12.27;;;10.33;;
6193;SDS011;3130;41.564;23.280;2023-07-31T04:37:44;12.13;;;10.33;;
6193;SDS011;3130;41.564;23.280;2023-07-31T04:40:13;12.40;;;11.17;;
6193;SDS011;3130;41.564;23.280;2023-07-31T04:42:42;11.73;;;10.43;;
6193;SDS011;3130;41.564;23.280;2023-07-31T04:45:09;13.73;;;11.90;;
6193;SDS011;3130;41.564;23.280;2023-07-31T04:47:36;11.20;;;10.10;;
6193;SDS011;3130;41.564;23.280;2023-07-31T04:50:04;10.87;;;9.70;;
6193;SDS011;3130;41.564;23.280;2023-07-31T04:52:33;12.37;;;11.07;;
6193;SDS011;3130;41.564;23.280;2023-07-31T04:55:00;12.97;;;10.93;;
6193;SDS011;3130;41.564;23.280;2023-07-31T04:57:28;13.53;;;11.40;;
6193;SDS011;3130;41.564;23.280;2023-07-31T04:59:55;13.30;;;10.53;;
6193;SDS011;3130;41.564;23.280;2023-07-31T05:02:22;12.33;;;10.73;;
6193;SDS011;3130;41.564;23.280;2023-07-31T05:04:51;16.03;;;11.17;;
6193;SDS011;3130;41.564;23.280;2023-07-31T05:07:18;11.40;;;10.20;;
6193;SDS011;3130;41.564;23.280;2023-07-31T05:09:47;13.83;;;10.73;;
6193;SDS011;3130;41.564;23.280;2023-07-31T05:12:14;12.07;;;10.77;;
6193;SDS011;3130;41.564;23.280;2023-07-31T05:14:42;12.67;;;11.37;;
6193;SDS011;3130;41.564;23.280;2023-07-31T05:17:09;12.20;;;9.97;;
6193;SDS011;3130;41.564;23.280;2023-07-31T05:19:37;13.83;;;11.43;;
6193;SDS011;3130;41.564;23.280;2023-07-31T05:22:04;12.90;;;11.03;;
6193;SDS011;3130;41.564;23.280;2023-07-31T05:24:35;12.60;;;10.80;;
6193;SDS011;3130;41.564;23.280;2023-07-31T05:27:04;13.20;;;11.87;;
6193;SDS011;3130;41.564;23.280;2023-07-31T05:29:32;13.40;;;10.17;;
6193;SDS011;3130;41.564;23.280;2023-07-31T05:31:59;12.93;;;11.57;;
6193;SDS011;3130;41.564;23.280;2023-07-31T05:34:27;13.17;;;11.70;;
6193;SDS011;3130;41.564;23.280;2023-07-31T05:36:54;12.90;;;11.57;;
6193;SDS011;3130;41.564;23.280;2023-07-31T05:39:21;16.07;;;11.90;;
6193;SDS011;3130;41.564;23.280;2023-07-31T05:41:49;14.33;;;12.33;;
6193;SDS011;3130;41.564;23.280;2023-07-31T05:44:18;17.83;;;13.90;;
6193;SDS011;3130;41.564;23.280;2023-07-31T05:46:46;14.50;;;12.83;;
6193;SDS011;3130;41.564;23.280;2023-07-31T05:49:14;14.40;;;12.90;;
6193;SDS011;3130;41.564;23.280;2023-07-31T05:51:42;14.67;;;13.10;;
6193;SDS011;3130;41.564;23.280;2023-07-31T05:54:09;15.53;;;12.30;;
6193;SDS011;3130;41.564;23.280;2023-07-31T05:56:37;15.60;;;13.20;;
6193;SDS011;3130;41.564;23.280;2023-07-31T05:59:04;16.97;;;13.93;;
6193;SDS011;3130;41.564;23.280;2023-07-31T06:01:33;16.07;;;14.37;;
6193;SDS011;3130;41.564;23.280;2023-07-31T06:04:01;16.47;;;13.97;;
6193;SDS011;3130;41.564;23.280;2023-07-31T06:06:28;15.40;;;13.57;;
6193;SDS011;3130;41.564;23.280;2023-07-31T06:08:56;17.93;;;15.07;;
6193;SDS011;3130;41.564;23.280;2023-07-31T06:11:24;18.03;;;14.37;;
6193;SDS011;3130;41.564;23.280;2023-07-31T06:13:51;17.67;;;15.77;;
6193;SDS011;3130;41.564;23.280;2023-07-31T06:16:19;20.03;;;16.03;;
6193;SDS011;3130;41.564;23.280;2023-07-31T06:18:48;18.10;;;15.47;;
6193;SDS011;3130;41.564;23.280;2023-07-31T06:21:15;15.30;;;13.40;;
6193;SDS011;3130;41.564;23.280;2023-07-31T06:23:42;16.87;;;15.07;;
6193;SDS011;3130;41.564;23.280;2023-07-31T06:26:09;15.85;;;13.90;;
6193;SDS011;3130;41.564;23.280;2023-07-31T06:28:36;18.90;;;16.50;;
6193;SDS011;3130;41.564;23.280;2023-07-31T06:31:04;18.17;;;14.67;;
6193;SDS011;3130;41.564;23.280;2023-07-31T06:33:31;15.80;;;14.10;;
6193;SDS011;3130;41.564;23.280;2023-07-31T06:36:01;18.70;;;15.30;;
6193;SDS011;3130;41.564;23.280;2023-07-31T06:38:28;17.27;;;15.20;;
6193;SDS011;3130;41.564;23.280;2023-07-31T06:40:56;17.80;;;16.00;;
6193;SDS011;3130;41.564;23.280;2023-07-31T06:43:24;17.53;;;15.43;;
6193;SDS011;3130;41.564;23.280;2023-07-31T06:45:52;20.13;;;15.55;;
6193;SDS011;3130;41.564;23.280;2023-07-31T06:48:19;16.57;;;14.87;;
6193;SDS011;3130;41.564;23.280;2023-07-31T06:50:46;18.63;;;16.73;;
6193;SDS011;3130;41.564;23.280;2023-07-31T06:53:15;16.52;;;14.75;;
6193;SDS011;3130;41.564;23.280;2023-07-31T06:55:43;17.50;;;15.30;;
6193;SDS011;3130;41.564;23.280;2023-07-31T06:58:11;16.95;;;14.77;;
6193;SDS011;3130;41.564;23.280;2023-07-31T07:00:38;16.08;;;14.50;;
6193;SDS011;3130;41.564;23.280;2023-07-31T07:03:05;17.05;;;15.35;;
6193;SDS011;3130;41.564;23.280;2023-07-31T07:05:33;16.20;;;14.50;;
6193;SDS011;3130;41.564;23.280;2023-07-31T07:08:01;16.13;;;14.05;;
6193;SDS011;3130;41.564;23.280;2023-07-31T07:10:30;16.90;;;14.93;;
6193;SDS011;3130;41.564;23.280;2023-07-31T07:12:57;15.98;;;14.35;;
6193;SDS011;3130;41.564;23.280;2023-07-31T07:15:26;17.48;;;15.38;;
6193;SDS011;3130;41.564;23.280;2023-07-31T07:17:56;16.60;;;14.85;;
6193;SDS011;3130;41.564;23.280;2023-07-31T07:20:23;17.75;;;15.40;;
6193;SDS011;3130;41.564;23.280;2023-07-31T07:22:51;17.08;;;15.27;;
6193;SDS011;3130;41.564;23.280;2023-07-31T07:25:18;18.23;;;14.52;;
6193;SDS011;3130;41.564;23.280;2023-07-31T07:27:47;14.45;;;12.95;;
6193;SDS011;3130;41.564;23.280;2023-07-31T07:30:14;14.00;;;12.63;;
6193;SDS011;3130;41.564;23.280;2023-07-31T07:32:42;13.98;;;12.45;;
6193;SDS011;3130;41.564;23.280;2023-07-31T07:35:10;14.43;;;12.93;;
6193;SDS011;3130;41.564;23.280;2023-07-31T07:37:37;13.18;;;11.25;;
6193;SDS011;3130;41.564;23.280;2023-07-31T07:40:05;15.13;;;13.52;;
6193;SDS011;3130;41.564;23.280;2023-07-31T07:42:33;14.13;;;12.63;;
6193;SDS011;3130;41.564;23.280;2023-07-31T07:45:02;15.60;;;11.88;;
6193;SDS011;3130;41.564;23.280;2023-07-31T07:47:30;12.93;;;11.40;;
6193;SDS011;3130;41.564;23.280;2023-07-31T07:49:57;14.15;;;12.13;;
6193;SDS011;3130;41.564;23.280;2023-07-31T07:52:24;13.48;;;12.07;;
6193;SDS011;3130;41.564;23.280;2023-07-31T07:54:52;14.40;;;12.55;;
6193;SDS011;3130;41.564;23.280;2023-07-31T07:57:19;13.82;;;11.68;;
6193;SDS011;3130;41.564;23.280;2023-07-31T07:59:46;13.32;;;10.73;;
6193;SDS011;3130;41.564;23.280;2023-07-31T08:02:17;13.32;;;11.93;;
6193;SDS011;3130;41.564;23.280;2023-07-31T08:04:48;14.15;;;12.75;;
6193;SDS011;3130;41.564;23.280;2023-07-31T08:07:17;13.45;;;12.05;;
6193;SDS011;3130;41.564;23.280;2023-07-31T08:09:45;13.05;;;11.68;;
6193;SDS011;3130;41.564;23.280;2023-07-31T08:12:12;13.63;;;11.90;;
6193;SDS011;3130;41.564;23.280;2023-07-31T08:14:40;11.25;;;10.00;;
6193;SDS011;3130;41.564;23.280;2023-07-31T08:17:07;11.85;;;10.75;;
6193;SDS011;3130;41.564;23.280;2023-07-31T08:19:36;11.27;;;10.10;;
6193;SDS011;3130;41.564;23.280;2023-07-31T08:22:03;11.40;;;9.82;;
6193;SDS011;3130;41.564;23.280;2023-07-31T08:24:31;12.57;;;10.95;;
6193;SDS011;3130;41.564;23.280;2023-07-31T08:26:58;11.73;;;10.48;;
6193;SDS011;3130;41.564;23.280;2023-07-31T08:29:25;10.85;;;9.88;;
6193;SDS011;3130;41.564;23.280;2023-07-31T08:31:53;11.55;;;10.32;;
6193;SDS011;3130;41.564;23.280;2023-07-31T08:34:20;15.00;;;10.88;;
6193;SDS011;3130;41.564;23.280;2023-07-31T08:36:50;12.20;;;11.00;;
6193;SDS011;3130;41.564;23.280;2023-07-31T08:39:17;14.00;;;12.48;;
6193;SDS011;3130;41.564;23.280;2023-07-31T08:41:45;14.63;;;13.13;;
6193;SDS011;3130;41.564;23.280;2023-07-31T08:44:12;15.00;;;13.13;;
6193;SDS011;3130;41.564;23.280;2023-07-31T08:46:42;12.45;;;11.20;;
6193;SDS011;3130;41.564;23.280;2023-07-31T08:49:09;12.57;;;11.38;;
6193;SDS011;3130;41.564;23.280;2023-07-31T08:51:37;12.27;;;10.98;;
6193;SDS011;3130;41.564;23.280;2023-07-31T08:54:06;12.57;;;11.35;;
6193;SDS011;3130;41.564;23.280;2023-07-31T08:56:33;11.77;;;10.60;;
6193;SDS011;3130;41.564;23.280;2023-07-31T08:59:02;11.32;;;9.50;;
6193;SDS011;3130;41.564;23.280;2023-07-31T09:01:31;10.75;;;9.70;;
6193;SDS011;3130;41.564;23.280;2023-07-31T09:04:04;11.13;;;10.02;;
6193;SDS011;3130;41.564;23.280;2023-07-31T09:06:33;18.13;;;10.02;;
6193;SDS011;3130;41.564;23.280;2023-07-31T09:09:01;11.55;;;9.65;;
6193;SDS011;3130;41.564;23.280;2023-07-31T09:11:30;10.93;;;9.85;;
6193;SDS011;3130;41.564;23.280;2023-07-31T09:13:57;14.98;;;11.48;;
6193;SDS011;3130;41.564;23.280;2023-07-31T09:16:27;12.23;;;10.40;;
6193;SDS011;3130;41.564;23.280;2023-07-31T09:18:57;11.85;;;10.60;;
6193;SDS011;3130;41.564;23.280;2023-07-31T09:21:27;10.52;;;9.50;;
6193;SDS011;3130;41.564;23.280;2023-07-31T09:23:54;9.88;;;8.88;;
6193;SDS011;3130;41.564;23.280;2023-07-31T09:26:32;10.15;;;8.10;;
6193;SDS011;3130;41.564;23.280;2023-07-31T09:29:01;10.23;;;8.65;;
6193;SDS011;3130;41.564;23.280;2023-07-31T09:31:33;9.80;;;8.80;;
6193;SDS011;3130;41.564;23.280;2023-07-31T09:34:10;12.60;;;9.65;;
6193;SDS011;3130;41.564;23.280;2023-07-31T09:36:42;9.43;;;8.45;;
6193;SDS011;3130;41.564;23.280;2023-07-31T09:39:10;9.73;;;8.73;;
6193;SDS011;3130;41.564;23.280;2023-07-31T09:41:42;10.15;;;9.15;;
6193;SDS011;3130;41.564;23.280;2023-07-31T09:44:10;9.13;;;7.85;;
6193;SDS011;3130;41.564;23.280;2023-07-31T09:46:38;8.65;;;7.85;;
6193;SDS011;3130;41.564;23.280;2023-07-31T09:49:06;9.18;;;8.27;;
6193;SDS011;3130;41.564;23.280;2023-07-31T09:51:36;9.60;;;8.55;;
6193;SDS011;3130;41.564;23.280;2023-07-31T09:54:11;8.27;;;7.45;;
6193;SDS011;3130;41.564;23.280;2023-07-31T09:56:42;8.23;;;7.43;;
6193;SDS011;3130;41.564;23.280;2023-07-31T09:59:14;8.27;;;7.47;;
6193;SDS011;3130;41.564;23.280;2023-07-31T10:01:43;12.10;;;9.15;;
6193;SDS011;3130;41.564;23.280;2023-07-31T10:04:14;7.57;;;6.80;;
6193;SDS011;3130;41.564;23.280;2023-07-31T10:06:46;9.07;;;8.00;;
6193;SDS011;3130;41.564;23.280;2023-07-31T10:09:18;7.43;;;6.72;;
6193;SDS011;3130;41.564;23.280;2023-07-31T10:11:51;8.65;;;7.90;;
6193;SDS011;3130;41.564;23.280;2023-07-31T10:14:24;8.73;;;7.82;;
6193;SDS011;3130;41.564;23.280;2023-07-31T10:16:54;8.20;;;7.40;;
6193;SDS011;3130;41.564;23.280;2023-07-31T10:19:23;7.55;;;6.85;;
6193;SDS011;3130;41.564;23.280;2023-07-31T10:21:51;8.57;;;7.75;;
6193;SDS011;3130;41.564;23.280;2023-07-31T10:24:21;9.75;;;6.72;;
6193;SDS011;3130;41.564;23.280;2023-07-31T10:26:52;6.82;;;6.22;;
6193;SDS011;3130;41.564;23.280;2023-07-31T10:29:21;6.22;;;5.63;;
6193;SDS011;3130;41.564;23.280;2023-07-31T10:31:49;6.15;;;5.55;;
6193;SDS011;3130;41.564;23.280;2023-07-31T10:34:19;7.13;;;6.43;;
6193;SDS011;3130;41.564;23.280;2023-07-31T10:36:47;6.97;;;6.28;;
6193;SDS011;3130;41.564;23.280;2023-07-31T10:42:14;8.23;;;7.35;;
6193;SDS011;3130;41.564;23.280;2023-07-31T10:44:44;7.47;;;6.68;;
6193;SDS011;3130;41.564;23.280;2023-07-31T10:47:14;7.40;;;6.32;;
6193;SDS011;3130;41.564;23.280;2023-07-31T10:49:44;9.65;;;7.70;;
6193;SDS011;3130;41.564;23.280;2023-07-31T10:52:13;8.27;;;7.35;;
6193;SDS011;3130;41.564;23.280;2023-07-31T10:54:40;6.82;;;6.00;;
6193;SDS011;3130;41.564;23.280;2023-07-31T10:57:19;7.93;;;5.68;;
6193;SDS011;3130;41.564;23.280;2023-07-31T10:59:55;6.30;;;5.70;;
6193;SDS011;3130;41.564;23.280;2023-07-31T11:03:10;6.00;;;5.50;;
6193;SDS011;3130;41.564;23.280;2023-07-31T11:05:46;7.13;;;5.95;;
6193;SDS011;3130;41.564;23.280;2023-07-31T11:08:15;6.68;;;6.03;;
6193;SDS011;3130;41.564;23.280;2023-07-31T11:10:45;6.28;;;5.68;;
6193;SDS011;3130;41.564;23.280;2023-07-31T11:13:14;9.10;;;5.57;;
6193;SDS011;3130;41.564;23.280;2023-07-31T11:15:42;6.18;;;5.57;;
6193;SDS011;3130;41.564;23.280;2023-07-31T11:18:09;6.05;;;5.22;;
6193;SDS011;3130;41.564;23.280;2023-07-31T11:20:37;6.38;;;5.80;;
6193;SDS011;3130;41.564;23.280;2023-07-31T11:23:06;5.32;;;4.82;;
6193;SDS011;3130;41.564;23.280;2023-07-31T11:25:35;4.43;;;3.97;;
6193;SDS011;3130;41.564;23.280;2023-07-31T11:28:06;5.07;;;4.25;;
6193;SDS011;3130;41.564;23.280;2023-07-31T11:30:37;4.65;;;4.05;;
6193;SDS011;3130;41.564;23.280;2023-07-31T11:33:06;5.10;;;4.60;;
6193;SDS011;3130;41.564;23.280;2023-07-31T11:35:34;4.47;;;3.85;;
6193;SDS011;3130;41.564;23.280;2023-07-31T11:38:03;5.15;;;4.63;;
6193;SDS011;3130;41.564;23.280;2023-07-31T11:40:30;6.63;;;4.88;;
6193;SDS011;3130;41.564;23.280;2023-07-31T11:43:03;5.95;;;5.35;;
6193;SDS011;3130;41.564;23.280;2023-07-31T11:45:31;5.05;;;4.50;;
6193;SDS011;3130;41.564;23.280;2023-07-31T11:48:00;5.00;;;4.35;;
6193;SDS011;3130;41.564;23.280;2023-07-31T11:50:28;4.80;;;4.30;;
6193;SDS011;3130;41.564;23.280;2023-07-31T11:53:00;4.97;;;4.47;;
6193;SDS011;3130;41.564;23.280;2023-07-31T11:55:32;4.75;;;4.35;;
6193;SDS011;3130;41.564;23.280;2023-07-31T11:58:00;4.50;;;4.10;;
6193;SDS011;3130;41.564;23.280;2023-07-31T12:00:27;6.03;;;5.20;;
6193;SDS011;3130;41.564;23.280;2023-07-31T12:02:55;4.70;;;3.95;;
6193;SDS011;3130;41.564;23.280;2023-07-31T12:05:24;4.20;;;3.80;;
6193;SDS011;3130;41.564;23.280;2023-07-31T12:07:53;3.22;;;2.92;;
6193;SDS011;3130;41.564;23.280;2023-07-31T12:10:28;4.68;;;4.18;;
6193;SDS011;3130;41.564;23.280;2023-07-31T12:13:07;4.35;;;3.95;;
6193;SDS011;3130;41.564;23.280;2023-07-31T12:15:39;4.10;;;3.70;;
6193;SDS011;3130;41.564;23.280;2023-07-31T12:18:09;4.00;;;3.60;;
6193;SDS011;3130;41.564;23.280;2023-07-31T12:20:42;3.70;;;3.38;;
6193;SDS011;3130;41.564;23.280;2023-07-31T12:23:14;4.70;;;3.78;;
6193;SDS011;3130;41.564;23.280;2023-07-31T12:25:43;4.07;;;3.67;;
6193;SDS011;3130;41.564;23.280;2023-07-31T12:28:10;4.30;;;3.90;;
6193;SDS011;3130;41.564;23.280;2023-07-31T12:30:38;3.90;;;3.60;;
6193;SDS011;3130;41.564;23.280;2023-07-31T12:33:10;4.85;;;4.35;;
6193;SDS011;3130;41.564;23.280;2023-07-31T12:35:45;4.78;;;4.13;;
6193;SDS011;3130;41.564;23.280;2023-07-31T12:38:13;4.75;;;3.72;;
6193;SDS011;3130;41.564;23.280;2023-07-31T12:40:41;4.20;;;2.97;;
6193;SDS011;3130;41.564;23.280;2023-07-31T12:43:08;3.65;;;3.25;;
6193;SDS011;3130;41.564;23.280;2023-07-31T12:45:36;4.00;;;3.30;;
6193;SDS011;3130;41.564;23.280;2023-07-31T12:48:05;6.15;;;4.90;;
6193;SDS011;3130;41.564;23.280;2023-07-31T12:50:33;3.00;;;2.70;;
6193;SDS011;3130;41.564;23.280;2023-07-31T12:53:05;4.85;;;3.40;;
6193;SDS011;3130;41.564;23.280;2023-07-31T12:55:33;5.85;;;2.63;;
6193;SDS011;3130;41.564;23.280;2023-07-31T12:58:02;3.10;;;2.80;;
6193;SDS011;3130;41.564;23.280;2023-07-31T13:00:29;4.78;;;3.45;;
6193;SDS011;3130;41.564;23.280;2023-07-31T13:02:57;3.75;;;2.38;;
6193;SDS011;3130;41.564;23.280;2023-07-31T13:05:24;3.67;;;1.80;;
6193;SDS011;3130;41.564;23.280;2023-07-31T13:07:51;5.95;;;3.83;;
6193;SDS011;3130;41.564;23.280;2023-07-31T13:10:20;3.63;;;2.58;;
6193;SDS011;3130;41.564;23.280;2023-07-31T13:12:48;3.40;;;3.10;;
6193;SDS011;3130;41.564;23.280;2023-07-31T13:15:15;4.75;;;2.40;;
6193;SDS011;3130;41.564;23.280;2023-07-31T13:17:43;4.85;;;3.25;;
6193;SDS011;3130;41.564;23.280;2023-07-31T13:20:15;3.72;;;3.35;;
6193;SDS011;3130;41.564;23.280;2023-07-31T13:22:42;3.70;;;3.05;;
6193;SDS011;3130;41.564;23.280;2023-07-31T13:25:10;2.88;;;2.20;;
6193;SDS011;3130;41.564;23.280;2023-07-31T13:27:38;3.53;;;2.60;;
6193;SDS011;3130;41.564;23.280;2023-07-31T13:30:07;2.72;;;1.95;;
6193;SDS011;3130;41.564;23.280;2023-07-31T13:32:34;2.45;;;2.25;;
6193;SDS011;3130;41.564;23.280;2023-07-31T13:35:04;3.95;;;2.55;;
6193;SDS011;3130;41.564;23.280;2023-07-31T13:37:32;2.72;;;2.53;;
6193;SDS011;3130;41.564;23.280;2023-07-31T13:39:59;2.88;;;2.40;;
6193;SDS011;3130;41.564;23.280;2023-07-31T13:42:26;2.05;;;1.85;;
6193;SDS011;3130;41.564;23.280;2023-07-31T13:44:55;2.10;;;1.90;;
6193;SDS011;3130;41.564;23.280;2023-07-31T13:47:23;2.90;;;1.95;;
6193;SDS011;3130;41.564;23.280;2023-07-31T13:49:50;6.20;;;3.03;;
6193;SDS011;3130;41.564;23.280;2023-07-31T13:52:19;2.20;;;2.00;;
6193;SDS011;3130;41.564;23.280;2023-07-31T13:55:01;4.78;;;3.45;;
6193;SDS011;3130;41.564;23.280;2023-07-31T13:57:28;3.35;;;3.05;;
6193;SDS011;3130;41.564;23.280;2023-07-31T13:59:57;2.95;;;2.13;;
6193;SDS011;3130;41.564;23.280;2023-07-31T14:02:24;3.50;;;3.13;;
6193;SDS011;3130;41.564;23.280;2023-07-31T14:04:52;3.20;;;2.78;;
6193;SDS011;3130;41.564;23.280;2023-07-31T14:07:20;3.90;;;2.78;;
6193;SDS011;3130;41.564;23.280;2023-07-31T14:09:47;3.25;;;2.50;;
6193;SDS011;3130;41.564;23.280;2023-07-31T14:12:17;3.50;;;2.67;;
6193;SDS011;3130;41.564;23.280;2023-07-31T14:14:45;3.22;;;2.92;;
6193;SDS011;3130;41.564;23.280;2023-07-31T14:17:16;6.75;;;3.00;;
6193;SDS011;3130;41.564;23.280;2023-07-31T14:19:43;5.18;;;4.25;;
6193;SDS011;3130;41.564;23.280;2023-07-31T14:22:11;2.33;;;2.10;;
6193;SDS011;3130;41.564;23.280;2023-07-31T14:24:38;3.05;;;2.50;;
6193;SDS011;3130;41.564;23.280;2023-07-31T14:27:06;3.63;;;2.97;;
6193;SDS011;3130;41.564;23.280;2023-07-31T14:29:33;3.05;;;2.70;;
6193;SDS011;3130;41.564;23.280;2023-07-31T14:32:01;3.67;;;2.50;;
6193;SDS011;3130;41.564;23.280;2023-07-31T14:34:31;2.38;;;1.90;;
6193;SDS011;3130;41.564;23.280;2023-07-31T14:36:58;3.10;;;2.72;;
6193;SDS011;3130;41.564;23.280;2023-07-31T14:39:26;3.08;;;2.60;;
6193;SDS011;3130;41.564;23.280;2023-07-31T14:41:53;3.55;;;2.80;;
6193;SDS011;3130;41.564;23.280;2023-07-31T14:44:20;4.07;;;2.45;;
6193;SDS011;3130;41.564;23.280;2023-07-31T14:46:47;3.78;;;3.17;;
6193;SDS011;3130;41.564;23.280;2023-07-31T14:49:15;3.15;;;2.63;;
6193;SDS011;3130;41.564;23.280;2023-07-31T14:51:44;7.65;;;4.00;;
6193;SDS011;3130;41.564;23.280;2023-07-31T14:54:11;2.80;;;2.60;;
6193;SDS011;3130;41.564;23.280;2023-07-31T14:56:38;3.15;;;2.85;;
6193;SDS011;3130;41.564;23.280;2023-07-31T14:59:05;5.97;;;3.00;;
6193;SDS011;3130;41.564;23.280;2023-07-31T15:01:33;4.78;;;3.58;;